createdAt,value
2023-02-18T00:01:44.300Z,19.90
2023-02-18T00:04:12.736Z,22.70
2023-02-18T00:06:41.777Z,21.30
2023-02-18T00:09:10.849Z,23.70
2023-02-18T00:11:40.009Z,21.90
2023-02-18T00:14:11.431Z,23.90
2023-02-18T00:16:42.072Z,23.60
2023-02-18T00:19:18.403Z,22.20
2023-02-18T00:21:46.967Z,24.50
2023-02-18T00:24:15.729Z,23.50
2023-02-18T00:26:44.445Z,24.40
2023-02-18T00:29:13.055Z,25.00
2023-02-18T00:31:46.125Z,24.30
2023-02-18T00:34:14.669Z,23.40
2023-02-18T00:36:43.266Z,25.60
2023-02-18T00:39:12.973Z,26.70
2023-02-18T00:41:42.244Z,25.80
2023-02-18T00:44:11.468Z,26.30
2023-02-18T00:46:39.935Z,25.30
2023-02-18T00:49:08.735Z,27.00
2023-02-18T00:51:37.650Z,26.60
2023-02-18T00:54:06.314Z,27.10
2023-02-18T00:56:34.695Z,27.20
2023-02-18T00:59:03.053Z,29.00
2023-02-18T01:01:32.152Z,29.20
2023-02-18T01:04:00.662Z,27.60
2023-02-18T01:06:29.091Z,26.90
2023-02-18T01:08:57.365Z,26.50
2023-02-18T01:11:25.801Z,26.90
2023-02-18T01:13:54.365Z,27.10
2023-02-18T01:16:24.074Z,28.40
2023-02-18T01:18:53.714Z,26.90
2023-02-18T01:21:22.037Z,27.40
2023-02-18T01:23:50.579Z,28.10
2023-02-18T01:26:19.340Z,29.30
2023-02-18T01:28:48.417Z,28.00
2023-02-18T01:31:17.062Z,27.70
2023-02-18T01:33:46.604Z,27.70
2023-02-18T01:36:15.269Z,27.60
2023-02-18T01:38:43.526Z,29.10
2023-02-18T01:41:11.924Z,28.10
2023-02-18T01:43:40.300Z,27.60
2023-02-18T01:46:19.530Z,28.30
2023-02-18T01:48:48.775Z,29.10
2023-02-18T01:51:18.125Z,25.40
2023-02-18T01:53:56.487Z,26.00
2023-02-18T01:56:48.558Z,25.10
2023-02-18T01:59:19.033Z,25.00
2023-02-18T02:01:47.414Z,24.90
2023-02-18T02:04:15.868Z,26.00
2023-02-18T02:06:44.147Z,23.10
2023-02-18T02:09:15.014Z,24.80
2023-02-18T02:11:56.674Z,26.10
2023-02-18T02:14:31.097Z,24.50
2023-02-18T02:17:16.255Z,25.80
2023-02-18T02:20:03.981Z,25.50
2023-02-18T02:22:41.246Z,23.90
2023-02-18T02:25:12.648Z,23.60
2023-02-18T02:28:11.017Z,23.30
2023-02-18T02:31:01.977Z,22.50
2023-02-18T02:33:56.799Z,23.70
2023-02-18T02:36:44.477Z,22.90
2023-02-18T02:42:02.330Z,21.70
2023-02-18T02:44:36.555Z,22.50
2023-02-18T02:47:31.613Z,21.40
2023-02-18T02:50:10.936Z,20.70
2023-02-18T02:52:45.377Z,22.70
2023-02-18T02:55:14.322Z,22.30
2023-02-18T02:57:44.905Z,23.00
2023-02-18T03:00:18.558Z,22.50
2023-02-18T03:03:16.825Z,22.40
2023-02-18T03:05:47.790Z,22.30
2023-02-18T03:08:32.910Z,23.20
2023-02-18T03:11:14.933Z,21.00
2023-02-18T03:13:52.835Z,21.30
2023-02-18T03:16:47.715Z,21.00
2023-02-18T03:19:28.690Z,21.70
2023-02-18T03:22:01.553Z,22.80
2023-02-18T03:24:34.013Z,22.40
2023-02-18T03:27:10.425Z,22.50
2023-02-18T03:29:39.214Z,21.00
2023-02-18T03:32:08.661Z,21.30
2023-02-18T03:34:39.842Z,19.50
2023-02-18T03:37:10.867Z,21.50
2023-02-18T03:39:41.290Z,21.20
2023-02-18T03:42:09.436Z,21.90
2023-02-18T03:44:37.895Z,22.10
2023-02-18T03:47:06.436Z,22.60
2023-02-18T03:49:35.196Z,20.20
2023-02-18T03:52:03.710Z,21.60
2023-02-18T03:54:33.521Z,19.80
2023-02-18T03:57:02.514Z,19.90
2023-02-18T03:59:32.613Z,20.40
2023-02-18T04:02:01.142Z,20.90
2023-02-18T04:04:30.375Z,20.20
2023-02-18T04:06:59.060Z,20.60
2023-02-18T04:09:32.281Z,19.10
2023-02-18T04:12:00.605Z,20.20
2023-02-18T04:14:29.138Z,19.90
2023-02-18T04:17:01.532Z,18.50
2023-02-18T04:19:29.818Z,18.90
2023-02-18T04:22:02.576Z,19.00
2023-02-18T04:24:30.826Z,18.50
2023-02-18T04:26:59.030Z,19.60
2023-02-18T04:29:27.496Z,17.60
2023-02-18T04:31:55.939Z,17.70
2023-02-18T04:34:24.328Z,17.60
2023-02-18T04:36:52.637Z,17.20
2023-02-18T04:39:20.939Z,16.10
2023-02-18T04:41:49.292Z,15.30
2023-02-18T04:44:18.884Z,16.30
2023-02-18T04:46:47.271Z,16.70
2023-02-18T04:49:15.422Z,15.60
2023-02-18T04:51:43.738Z,15.30
2023-02-18T04:54:14.806Z,15.70
2023-02-18T04:56:43.065Z,14.80
2023-02-18T04:59:11.955Z,15.70
2023-02-18T05:01:40.670Z,15.40
2023-02-18T05:04:09.122Z,16.30
2023-02-18T05:06:39.677Z,16.60
2023-02-18T05:09:08.350Z,14.80
2023-02-18T05:11:36.708Z,14.40
2023-02-18T05:14:05.498Z,14.70
2023-02-18T05:16:36.771Z,15.10
2023-02-18T05:19:05.409Z,15.40
2023-02-18T05:21:34.233Z,14.10
2023-02-18T05:24:02.494Z,14.00
2023-02-18T05:26:30.832Z,13.50
2023-02-18T05:28:59.753Z,14.40
2023-02-18T05:31:28.274Z,13.20
2023-02-18T05:33:56.615Z,13.40
2023-02-18T05:36:25.280Z,13.80
2023-02-18T05:38:57.807Z,13.20
2023-02-18T05:41:26.161Z,13.70
2023-02-18T05:44:13.133Z,12.20
2023-02-18T05:46:41.405Z,12.60
2023-02-18T05:49:10.007Z,13.60
2023-02-18T05:51:38.964Z,13.20
2023-02-18T05:54:07.651Z,12.80
2023-02-18T05:56:35.852Z,12.60
2023-02-18T05:59:04.566Z,12.60
2023-02-18T06:01:33.153Z,12.20
2023-02-18T06:04:01.866Z,12.60
2023-02-18T06:06:32.471Z,10.70
2023-02-18T06:09:01.828Z,12.10
2023-02-18T06:11:30.439Z,11.50
2023-02-18T06:13:58.770Z,11.30
2023-02-18T06:16:27.454Z,10.70
2023-02-18T06:18:55.866Z,10.50
2023-02-18T06:21:24.528Z,10.00
2023-02-18T06:23:56.700Z,10.30
2023-02-18T06:26:26.989Z,10.00
2023-02-18T06:28:55.965Z,10.80
2023-02-18T06:31:24.447Z,10.00
2023-02-18T06:33:54.141Z,9.70
2023-02-18T06:36:22.620Z,9.50
2023-02-18T06:38:51.124Z,8.50
2023-02-18T06:41:19.968Z,7.80
2023-02-18T06:43:49.088Z,6.90
2023-02-18T06:46:17.366Z,6.90
2023-02-18T06:48:45.825Z,7.20
2023-02-18T06:51:16.244Z,7.40
2023-02-18T06:53:44.609Z,6.80
2023-02-18T06:56:12.889Z,6.40
2023-02-18T06:58:41.220Z,6.60
2023-02-18T07:01:09.561Z,6.10
2023-02-18T07:03:38.128Z,6.80
2023-02-18T07:06:07.804Z,6.60
2023-02-18T07:08:39.302Z,6.50
2023-02-18T07:11:07.711Z,6.60
2023-02-18T07:13:37.239Z,6.00
2023-02-18T07:16:06.097Z,6.40
2023-02-18T07:18:34.674Z,6.10
2023-02-18T07:21:02.925Z,5.30
2023-02-18T07:23:31.197Z,5.50
2023-02-18T07:26:11.738Z,5.40
2023-02-18T07:28:40.811Z,5.40
2023-02-18T07:31:09.127Z,5.20
2023-02-18T07:33:37.779Z,4.70
2023-02-18T07:36:07.918Z,3.80
2023-02-18T07:38:36.462Z,3.40
2023-02-18T07:41:05.139Z,3.30
2023-02-18T07:43:34.120Z,3.10
2023-02-18T07:46:06.729Z,2.90
2023-02-18T07:48:36.136Z,2.60
2023-02-18T07:51:10.551Z,2.00
2023-02-18T07:53:39.545Z,1.40
2023-02-18T07:56:08.198Z,1.40
2023-02-18T07:58:37.589Z,1.90
2023-02-18T08:01:10.121Z,1.10
2023-02-18T08:03:39.086Z,1.20
2023-02-18T08:06:09.092Z,1.20
2023-02-18T08:08:38.568Z,1.70
2023-02-18T08:11:18.575Z,1.10
2023-02-18T08:13:49.049Z,1.10
2023-02-18T08:16:18.354Z,1.30
2023-02-18T08:18:48.092Z,1.20
2023-02-18T08:21:17.322Z,1.50
2023-02-18T08:23:45.564Z,1.60
2023-02-18T08:26:14.366Z,1.30
2023-02-18T08:28:46.872Z,1.30
2023-02-18T08:31:19.819Z,1.30
2023-02-18T08:35:08.191Z,2.00
2023-02-18T08:37:53.014Z,1.50
2023-02-18T08:40:23.207Z,2.40
2023-02-18T08:42:51.501Z,2.70
2023-02-18T08:45:20.116Z,2.00
2023-02-18T08:48:17.324Z,1.80
2023-02-18T08:50:37.819Z,1.90
2023-02-18T08:53:06.266Z,1.80
2023-02-18T08:55:40.327Z,2.10
2023-02-18T08:58:08.804Z,2.20
2023-02-18T09:00:37.998Z,2.00
2023-02-18T09:03:06.591Z,2.30
2023-02-18T09:05:35.504Z,2.20
2023-02-18T09:08:04.070Z,1.80
2023-02-18T09:10:32.401Z,1.90
2023-02-18T09:13:00.646Z,2.40
2023-02-18T09:15:29.275Z,2.40
2023-02-18T09:17:57.639Z,2.30
2023-02-18T09:20:26.482Z,2.40
2023-02-18T09:22:54.909Z,2.00
2023-02-18T09:25:23.707Z,2.20
2023-02-18T09:27:52.366Z,1.80
2023-02-18T09:30:20.846Z,2.00
2023-02-18T09:32:49.661Z,2.00
2023-02-18T09:35:18.271Z,1.80
2023-02-18T09:37:47.687Z,2.00
2023-02-18T09:40:28.397Z,2.40
2023-02-18T09:42:57.471Z,2.00
2023-02-18T09:45:26.538Z,2.00
2023-02-18T09:47:55.560Z,1.80
2023-02-18T09:50:29.321Z,1.80
2023-02-18T09:53:01.149Z,2.10
2023-02-18T09:55:32.139Z,1.80
2023-02-18T09:58:19.950Z,1.60
2023-02-18T10:00:54.613Z,1.50
2023-02-18T10:03:44.553Z,1.80
2023-02-18T10:06:15.724Z,1.70
2023-02-18T10:08:46.718Z,2.20
2023-02-18T10:11:29.826Z,2.00
2023-02-18T10:14:01.851Z,1.90
2023-02-18T10:16:30.802Z,1.70
2023-02-18T10:19:04.065Z,2.10
2023-02-18T10:21:36.253Z,1.80
2023-02-18T10:24:31.454Z,1.50
2023-02-18T10:26:59.936Z,1.90
2023-02-18T10:29:31.033Z,1.40
2023-02-18T10:32:13.586Z,2.00
2023-02-18T10:34:51.340Z,1.80
2023-02-18T10:37:57.283Z,1.70
2023-02-18T10:40:47.380Z,1.90
2023-02-18T10:43:19.633Z,1.20
2023-02-18T10:46:14.078Z,1.20
2023-02-18T10:48:58.368Z,1.40
2023-02-18T10:51:33.806Z,1.30
2023-02-18T10:54:02.378Z,1.20
2023-02-18T10:56:40.647Z,1.60
2023-02-18T10:59:14.825Z,1.10
2023-02-18T11:01:44.599Z,1.30
2023-02-18T11:04:16.735Z,1.30
2023-02-18T11:06:47.287Z,1.40
2023-02-18T11:09:26.759Z,1.50
2023-02-18T11:12:08.846Z,1.60
2023-02-18T11:14:45.460Z,0.90
2023-02-18T11:17:27.646Z,1.50
2023-02-18T11:20:02.067Z,1.80
2023-02-18T11:22:33.857Z,1.30
2023-02-18T11:25:04.518Z,1.40
2023-02-18T11:27:44.864Z,1.80
2023-02-18T11:30:28.217Z,1.40
2023-02-18T11:32:58.988Z,1.60
2023-02-18T11:35:28.959Z,1.60
2023-02-18T11:37:58.307Z,1.50
2023-02-18T11:40:34.385Z,1.50
2023-02-18T11:43:09.403Z,1.20
2023-02-18T11:45:38.168Z,1.50
2023-02-18T11:48:16.485Z,1.10
2023-02-18T11:50:45.771Z,1.50
2023-02-18T11:53:29.449Z,1.30
2023-02-18T11:55:59.855Z,1.40
2023-02-18T11:58:41.673Z,2.00
2023-02-18T12:01:42.826Z,1.90
2023-02-18T12:04:24.119Z,1.70
2023-02-18T12:07:15.969Z,1.70
2023-02-18T12:09:56.310Z,1.60
2023-02-18T12:12:31.525Z,1.50
2023-02-18T12:15:00.907Z,1.50
2023-02-18T12:17:54.797Z,1.60
2023-02-18T12:21:02.467Z,1.80
2023-02-18T12:24:01.000Z,1.80
2023-02-18T12:26:58.948Z,1.40
2023-02-18T12:29:49.411Z,1.40
2023-02-18T12:32:58.856Z,1.90
2023-02-18T12:35:52.421Z,1.50
2023-02-18T12:38:33.135Z,1.40
2023-02-18T12:41:27.862Z,1.40
2023-02-18T12:44:27.882Z,1.60
2023-02-18T12:47:05.144Z,1.20
2023-02-18T12:49:42.575Z,1.80
2023-02-18T12:52:34.088Z,1.60
2023-02-18T12:55:31.299Z,1.50
2023-02-18T12:58:08.671Z,1.30
2023-02-18T13:03:51.674Z,1.50
2023-02-18T13:06:42.927Z,1.50
2023-02-18T13:09:34.327Z,1.70
2023-02-18T13:12:30.252Z,1.70
2023-02-18T13:15:04.544Z,1.60
2023-02-18T13:17:36.304Z,1.40
2023-02-18T13:20:35.462Z,1.60
2023-02-18T13:23:04.117Z,2.10
2023-02-18T13:25:35.756Z,1.70
2023-02-18T13:28:42.644Z,1.70
2023-02-18T13:31:25.756Z,1.30
2023-02-18T13:34:19.590Z,1.10
2023-02-18T13:37:08.966Z,1.60
2023-02-18T13:39:37.295Z,1.60
2023-02-18T13:42:18.653Z,1.50
2023-02-18T13:45:03.344Z,1.60
2023-02-18T13:47:38.904Z,1.80
2023-02-18T13:50:22.731Z,1.50
2023-02-18T13:53:13.129Z,1.70
2023-02-18T13:55:47.049Z,1.30
2023-02-18T13:58:48.635Z,2.40
2023-02-18T14:01:36.352Z,1.70
2023-02-18T14:04:04.790Z,1.70
2023-02-18T14:06:38.023Z,2.10
2023-02-18T14:09:14.741Z,1.90
2023-02-18T14:11:58.507Z,2.00
2023-02-18T14:14:27.474Z,1.80
2023-02-18T14:17:19.198Z,1.80
2023-02-18T14:20:00.742Z,1.70
2023-02-18T14:22:33.527Z,1.30
2023-02-18T14:25:13.941Z,2.10
2023-02-18T14:27:43.050Z,1.70
2023-02-18T14:30:20.874Z,1.70
2023-02-18T14:32:50.990Z,1.60
2023-02-18T14:35:32.655Z,2.00
2023-02-18T14:38:12.968Z,2.00
2023-02-18T14:41:09.053Z,2.10
2023-02-18T14:43:44.725Z,1.70
2023-02-18T14:46:16.341Z,1.60
2023-02-18T14:48:47.787Z,2.10
2023-02-18T14:51:20.784Z,1.60
2023-02-18T14:53:49.016Z,2.50
2023-02-18T14:56:18.898Z,1.70
2023-02-18T14:59:13.598Z,1.70
2023-02-18T15:01:42.075Z,1.80
2023-02-18T15:04:12.453Z,2.00
2023-02-18T15:06:41.046Z,2.40
2023-02-18T15:09:19.966Z,2.10
2023-02-18T15:11:52.156Z,2.00
2023-02-18T15:14:32.631Z,2.40
2023-02-18T15:17:07.262Z,2.90
2023-02-18T15:19:44.649Z,2.30
2023-02-18T15:22:21.311Z,1.70
2023-02-18T15:24:50.778Z,2.30
2023-02-18T15:27:29.840Z,2.10
2023-02-18T15:30:03.556Z,2.20
2023-02-18T15:32:32.845Z,2.20
2023-02-18T15:35:02.658Z,1.90
2023-02-18T15:37:31.190Z,2.10
2023-02-18T15:39:59.450Z,2.30
2023-02-18T15:42:30.133Z,2.10
2023-02-18T15:45:03.988Z,2.10
2023-02-18T15:47:33.018Z,1.90
2023-02-18T15:50:02.482Z,1.80
2023-02-18T15:52:32.770Z,2.30
2023-02-18T15:55:19.938Z,2.30
2023-02-18T15:57:48.934Z,2.20
2023-02-18T16:00:20.865Z,2.00
2023-02-18T16:02:56.805Z,1.90
2023-02-18T16:05:27.438Z,1.70
2023-02-18T16:08:07.305Z,2.10
2023-02-18T16:10:49.362Z,2.30
2023-02-18T16:13:18.514Z,1.80
2023-02-18T16:15:48.746Z,1.90
2023-02-18T16:18:37.184Z,2.30
2023-02-18T16:21:18.967Z,1.80
2023-02-18T16:24:00.682Z,1.80
2023-02-18T16:26:37.972Z,1.90
2023-02-18T16:29:15.468Z,2.20
2023-02-18T16:34:12.101Z,1.80
2023-02-18T16:37:00.966Z,1.70
2023-02-18T16:39:31.316Z,1.90
2023-02-18T16:41:59.528Z,2.10
2023-02-18T16:44:27.796Z,1.90
2023-02-18T16:46:57.185Z,1.80
2023-02-18T16:49:25.328Z,2.10
2023-02-18T16:51:53.528Z,1.80
2023-02-18T16:54:22.039Z,2.20
2023-02-18T16:56:51.212Z,2.10
2023-02-18T16:59:19.617Z,1.60
2023-02-18T17:01:48.051Z,1.60
2023-02-18T17:04:18.390Z,2.10
2023-02-18T17:06:46.981Z,1.70
2023-02-18T17:09:17.750Z,1.90
2023-02-18T17:11:47.027Z,1.90
2023-02-18T17:14:18.121Z,1.90
2023-02-18T17:16:47.622Z,2.10
2023-02-18T17:19:16.743Z,2.10
2023-02-18T17:21:46.965Z,1.80
2023-02-18T17:24:17.660Z,1.80
2023-02-18T17:26:46.236Z,1.90
2023-02-18T17:29:14.404Z,2.10
2023-02-18T17:31:47.290Z,2.00
2023-02-18T17:34:21.049Z,2.50
2023-02-18T17:36:51.728Z,1.90
2023-02-18T17:39:20.046Z,2.20
2023-02-18T17:41:48.652Z,2.10
2023-02-18T17:44:18.213Z,2.50
2023-02-18T17:46:49.900Z,1.90
2023-02-18T17:49:18.428Z,1.80
2023-02-18T17:51:47.290Z,1.60
2023-02-18T17:54:17.546Z,1.80
2023-02-18T17:56:46.229Z,1.90
2023-02-18T17:59:14.966Z,2.10
2023-02-18T18:01:43.940Z,2.00
2023-02-18T18:04:16.303Z,2.50
2023-02-18T18:06:45.933Z,2.30
2023-02-18T18:09:14.872Z,2.20
2023-02-18T18:11:44.051Z,1.90
2023-02-18T18:14:13.775Z,2.50
2023-02-18T18:16:42.077Z,2.40
2023-02-18T18:19:10.420Z,1.80
2023-02-18T18:21:39.099Z,2.10
2023-02-18T18:24:07.567Z,2.10
2023-02-18T18:26:35.860Z,2.30
2023-02-18T18:29:04.856Z,1.90
2023-02-18T18:31:33.288Z,2.10
2023-02-18T18:34:01.697Z,2.40
2023-02-18T18:36:30.053Z,2.10
2023-02-18T18:38:58.464Z,2.10
2023-02-18T18:41:26.766Z,2.60
2023-02-18T18:43:55.149Z,1.80
2023-02-18T18:46:24.023Z,1.80
2023-02-18T18:48:53.203Z,1.90
2023-02-18T18:51:27.724Z,1.60
2023-02-18T18:54:01.190Z,1.90
2023-02-18T18:56:30.138Z,1.90
2023-02-18T18:58:58.443Z,1.80
2023-02-18T19:01:27.583Z,2.00
2023-02-18T19:03:56.099Z,2.60
2023-02-18T19:06:24.940Z,2.20
2023-02-18T19:08:53.197Z,2.60
2023-02-18T19:11:24.388Z,2.00
2023-02-18T19:13:53.177Z,1.70
2023-02-18T19:16:23.323Z,2.20
2023-02-18T19:18:52.076Z,2.00
2023-02-18T19:21:20.350Z,2.20
2023-02-18T19:23:49.096Z,2.00
2023-02-18T19:26:17.409Z,2.10
2023-02-18T19:28:48.546Z,1.90
2023-02-18T19:31:17.104Z,2.00
2023-02-18T19:33:47.058Z,2.20
2023-02-18T19:36:16.857Z,2.00
2023-02-18T19:38:47.050Z,2.10
2023-02-18T19:41:17.056Z,2.00
2023-02-18T19:43:47.141Z,2.00
2023-02-18T19:46:17.604Z,2.40
2023-02-18T19:48:50.734Z,1.80
2023-02-18T19:51:20.780Z,2.20
2023-02-18T19:53:49.300Z,2.10
2023-02-18T19:56:17.672Z,1.90
2023-02-18T19:58:45.982Z,1.80
2023-02-18T20:01:15.355Z,1.60
2023-02-18T20:03:43.764Z,2.20
2023-02-18T20:06:21.013Z,2.30
2023-02-18T20:08:49.199Z,2.00
2023-02-18T20:11:18.025Z,1.60
2023-02-18T20:13:47.817Z,2.30
2023-02-18T20:16:16.324Z,2.20
2023-02-18T20:18:44.826Z,2.10
2023-02-18T20:21:13.418Z,1.60
2023-02-18T20:23:43.395Z,1.90
2023-02-18T20:26:13.135Z,2.30
2023-02-18T20:28:41.694Z,1.70
2023-02-18T20:31:12.426Z,2.30
2023-02-18T20:33:42.571Z,2.80
2023-02-18T20:36:11.224Z,2.30
2023-02-18T20:38:39.708Z,2.40
2023-02-18T20:41:14.569Z,1.70
2023-02-18T20:43:43.972Z,2.20
2023-02-18T20:46:17.203Z,2.50
2023-02-18T20:51:29.775Z,2.50
2023-02-18T20:53:58.131Z,2.00
2023-02-18T20:56:26.693Z,2.00
2023-02-18T20:58:55.456Z,2.20
2023-02-18T21:01:23.643Z,2.30
2023-02-18T21:03:52.190Z,2.50
2023-02-18T21:06:22.059Z,2.30
2023-02-18T21:08:52.709Z,2.50
2023-02-18T21:11:23.135Z,2.90
2023-02-18T21:13:52.194Z,2.80
2023-02-18T21:16:21.394Z,2.90
2023-02-18T21:18:50.597Z,2.70
2023-02-18T21:21:20.505Z,2.60
